Robin Babel

Olheiro - AZ
6 Mai 2027
Quinta-feira
Processo

Personalidade

Adaptabilidade (16) Ambição (18) Controvérsia (9) Lealdade (7) Pressão (20) Profissionalismo (12) Espírito Esportivo (3) Temperamento (18)

Perfil

Estilo de Treinamento Democrático
Licença Continental A
Determinação 13
Gestão de Pessoas 14
Motivação 5
Disciplina 7
Satisfação no Trabalho
65%
Fadiga
0%
Função Olheiro
Salário 92.9K p/s
Contrato 14.03.2030

Desempenho

Comportamento Bom
Eficácia do Treinamento
43%
Desenvolvimento do Jogador
45%
Prevenção de Lesões
30%
Implementação Tática
75%

Eventos Recentes

Participou de uma reunião de recrutamento 14d atrás
Participou de uma reunião de recrutamento 21d atrás
Participou de uma reunião de recrutamento 28d atrás
Participou de uma reunião de recrutamento 35d atrás
Participou de uma reunião de recrutamento 42d atrás
Aniversário 42d atrás
Participou de uma reunião de recrutamento 49d atrás
Participou de uma reunião de recrutamento 56d atrás

Monitorando agora

59
Jogador Clube Status Habilidade Confiança Observado Última observação Último voto
Yvandro Borges Sanches Heracles Ativo 117 / 112 51% 1 01.01.2027 -
Ruben van Bommel Ferencvaros Ativo 127 / 131 40% 3 31.12.2026 -
Jonathan Dubasin Osasuna Ativo 148 / 143 40% 1 31.12.2026 -
Samuel Soares Benfica Ativo 136 / 131 40% 3 29.12.2026 -
Strahinja Manojlović Radnicki Nis Ativo 112 / 109 40% 1 29.12.2026 -
Dango Ouattara Brentford Ativo 153 / 147 40% 2 28.12.2026 -
Andreas Jungdal Westerlo Ativo 130 / 122 40% 1 25.12.2026 -
Lucas Cañizares Tondela Ativo 115 / 110 40% 1 25.12.2026 -
Evanilson Bournemouth Ativo 143 / 151 40% 3 22.12.2026 -
Tani Oluwaseyi Villarreal Ativo 154 / 143 40% 2 22.12.2026 -
Igor Jesus Nottingham Forest Ativo 137 / 142 40% 3 20.12.2026 -
Charles De Ketelaere Atalanta Ativo 163 / 152 40% 1 20.12.2026 -
Isaac Romero Sevilla Ativo 145 / 138 40% 1 18.12.2026 -
Thiago Brentford Ativo 147 / 147 40% 1 16.12.2026 -
Luis Vázquez Birmingham Ativo 142 / 129 40% 1 16.12.2026 -
Rafiu Durosinmi Racing Genk Ativo 134 / 129 40% 2 15.12.2026 -
Ez Abde Girona Ativo 150 / 150 40% 2 15.12.2026 -
Jorge Pascual Granada Ativo 139 / 135 40% 1 10.12.2026 -
Georges Mikautadze Villarreal Ativo 154 / 151 40% 1 09.12.2026 -
Myron van Brederode KV Mechelen Ativo 127 / 123 40% 2 08.12.2026 -
Yousef Salech Cardiff City Ativo 117 / 125 40% 2 08.12.2026 -
Paulinho Palmeiras Ativo 144 / 144 40% 1 06.12.2026 -
Josh Keeley Luton Town Ativo 130 / 122 40% 3 05.12.2026 -
Bart Verbruggen Brighton Ativo 163 / 156 40% 3 04.12.2026 -
Filip Marschall Stevenage Ativo 103 / 114 40% 1 04.12.2026 -
Pol Tristán Barnsley Ativo 116 / 112 40% 2 02.12.2026 -
Robin Risser RC Lens Ativo 146 / 142 40% 2 02.12.2026 -
Anton Zhylkin Karpaty Ativo 92 / 101 40% 1 27.11.2026 -
Robin Roefs Sunderland Ativo 139 / 146 40% 1 27.11.2026 -
Pablo Felipe West Ham United Ativo 134 / 134 40% 3 26.11.2026 -
Manfred Ugalde Spartak Moscow Ativo 141 / 134 40% 1 26.11.2026 -
Kilian Nikiéma ADO Den Haag Ativo 116 / 119 40% 2 24.11.2026 -
Murphy Cooper Plymouth Argyle Ativo 107 / 111 40% 3 22.11.2026 -
Razvan Balasa Crvena Zvezda Ativo 142 / 147 40% 1 20.11.2026 -
Ozziel Herrera Tigres Ativo 119 / 130 40% 1 18.11.2026 -
Kévin Denkey FC Cincinnati Ativo 139 / 130 40% 1 02.11.2026 -
Aune Heggebø West Bromwich Albion Ativo 130 / 130 40% 1 02.11.2026 -
Nicolas Jackson Aston Villa Ativo 156 / 149 40% 2 29.10.2026 -
Adriano Bertaccini Anderlecht Ativo 116 / 125 40% 2 24.10.2026 -
Manuel Rios La Equidad Ativo 94 / 103 40% 2 10.10.2026 -
Georginio Rutter Brighton Ativo 159 / 150 40% 1 10.10.2026 -
Bénie Traoré New York City Ativo 124 / 126 40% 1 10.10.2026 -
James Trafford Leeds United Ativo 132 / 141 40% 1 10.10.2026 -
Wessam Abou Ali Columbus Crew Ativo 144 / 127 40% 1 05.10.2026 -
Alonso Martínez New York City Ativo 107 / 117 40% 1 03.10.2026 -
Vangelis Pavlidis Twente Ativo 151 / 155 40% 3 24.09.2026 -
Mohamed Koné Charleroi Ativo 105 / 106 40% 1 22.09.2026 -
Santino Barbi Talleres Ativo 109 / 111 40% 1 22.09.2026 -
Erick Reyes Toluca Ativo 153 / 139 40% 1 21.09.2026 -
Maxim Deman Waasland-Beveren Ativo 103 / 97 40% 1 17.09.2026 -
Tadeo Allende Inter Miami CF Ativo 132 / 122 40% 1 16.09.2026 -
Manuel Ospina Cortulua Ativo 122 / 125 40% 1 14.09.2026 -
Leonardo Campana New England Revolution Ativo 139 / 124 40% 1 13.09.2026 -
Romeo Vermant Club Brugge Ativo 114 / 123 40% 1 13.09.2026 -
Tomás Ahumada Audax Italiano Ativo 105 / 111 40% 1 10.09.2026 -
Cheikh Sabaly Vancouver Whitecaps Ativo 139 / 126 40% 1 09.09.2026 -
Ebbe De Vlaeminck Lokeren Ativo 80 / 97 40% 1 08.09.2026 -
Tjaronn Chery NEC Ativo 115 / 125 51% 1 03.08.2026 -
Joe Gomez Liverpool Ativo 144 / 150 40% 1 01.08.2026 -